sensor_id;sensor_type;location;lat;lon;timestamp;P1;durP1;ratioP1;P2;durP2;ratioP2
68976;SDS011;56029;52.568;13.588;2023-10-31T00:01:23;9.70;;;4.83;;
68976;SDS011;56029;52.568;13.588;2023-10-31T00:03:49;9.60;;;4.73;;
68976;SDS011;56029;52.568;13.588;2023-10-31T00:06:14;9.30;;;4.82;;
68976;SDS011;56029;52.568;13.588;2023-10-31T00:08:40;10.27;;;4.70;;
68976;SDS011;56029;52.568;13.588;2023-10-31T00:11:05;8.52;;;4.57;;
68976;SDS011;56029;52.568;13.588;2023-10-31T00:13:31;11.20;;;5.17;;
68976;SDS011;56029;52.568;13.588;2023-10-31T00:15:56;9.23;;;4.57;;
68976;SDS011;56029;52.568;13.588;2023-10-31T00:18:22;9.83;;;4.67;;
68976;SDS011;56029;52.568;13.588;2023-10-31T00:20:47;11.77;;;4.93;;
68976;SDS011;56029;52.568;13.588;2023-10-31T00:23:13;9.77;;;4.93;;
68976;SDS011;56029;52.568;13.588;2023-10-31T00:25:40;8.68;;;4.75;;
68976;SDS011;56029;52.568;13.588;2023-10-31T00:28:06;10.57;;;5.07;;
68976;SDS011;56029;52.568;13.588;2023-10-31T00:30:31;11.82;;;4.88;;
68976;SDS011;56029;52.568;13.588;2023-10-31T00:32:57;10.70;;;5.17;;
68976;SDS011;56029;52.568;13.588;2023-10-31T00:35:23;10.17;;;5.37;;
68976;SDS011;56029;52.568;13.588;2023-10-31T00:37:48;11.18;;;5.15;;
68976;SDS011;56029;52.568;13.588;2023-10-31T00:40:14;11.07;;;4.90;;
68976;SDS011;56029;52.568;13.588;2023-10-31T00:42:39;13.75;;;5.00;;
68976;SDS011;56029;52.568;13.588;2023-10-31T00:45:05;8.87;;;4.93;;
68976;SDS011;56029;52.568;13.588;2023-10-31T00:47:30;12.90;;;5.75;;
68976;SDS011;56029;52.568;13.588;2023-10-31T00:49:56;10.07;;;5.40;;
68976;SDS011;56029;52.568;13.588;2023-10-31T00:52:21;11.73;;;5.30;;
68976;SDS011;56029;52.568;13.588;2023-10-31T00:54:47;12.38;;;5.40;;
68976;SDS011;56029;52.568;13.588;2023-10-31T00:57:12;10.77;;;5.60;;
68976;SDS011;56029;52.568;13.588;2023-10-31T00:59:38;10.50;;;5.37;;
68976;SDS011;56029;52.568;13.588;2023-10-31T01:02:04;11.30;;;5.67;;
68976;SDS011;56029;52.568;13.588;2023-10-31T01:04:29;10.20;;;5.47;;
68976;SDS011;56029;52.568;13.588;2023-10-31T01:06:55;10.10;;;5.40;;
68976;SDS011;56029;52.568;13.588;2023-10-31T01:09:20;12.30;;;6.20;;
68976;SDS011;56029;52.568;13.588;2023-10-31T01:11:46;14.23;;;5.73;;
68976;SDS011;56029;52.568;13.588;2023-10-31T01:14:11;10.25;;;5.50;;
68976;SDS011;56029;52.568;13.588;2023-10-31T01:16:37;12.77;;;5.90;;
68976;SDS011;56029;52.568;13.588;2023-10-31T01:19:03;11.97;;;6.10;;
68976;SDS011;56029;52.568;13.588;2023-10-31T01:21:28;10.98;;;5.40;;
68976;SDS011;56029;52.568;13.588;2023-10-31T01:23:54;12.43;;;5.77;;
68976;SDS011;56029;52.568;13.588;2023-10-31T01:26:19;10.47;;;5.50;;
68976;SDS011;56029;52.568;13.588;2023-10-31T01:28:45;12.05;;;5.70;;
68976;SDS011;56029;52.568;13.588;2023-10-31T01:31:10;11.27;;;5.90;;
68976;SDS011;56029;52.568;13.588;2023-10-31T01:33:36;11.80;;;5.90;;
68976;SDS011;56029;52.568;13.588;2023-10-31T01:36:01;14.77;;;5.80;;
68976;SDS011;56029;52.568;13.588;2023-10-31T01:38:30;14.73;;;5.82;;
68976;SDS011;56029;52.568;13.588;2023-10-31T01:40:55;11.00;;;5.87;;
68976;SDS011;56029;52.568;13.588;2023-10-31T01:43:34;13.03;;;6.10;;
68976;SDS011;56029;52.568;13.588;2023-10-31T01:46:01;12.60;;;6.07;;
68976;SDS011;56029;52.568;13.588;2023-10-31T01:48:27;13.20;;;6.20;;
68976;SDS011;56029;52.568;13.588;2023-10-31T01:50:54;11.48;;;5.90;;
68976;SDS011;56029;52.568;13.588;2023-10-31T01:53:22;11.27;;;6.27;;
68976;SDS011;56029;52.568;13.588;2023-10-31T01:55:49;15.60;;;6.25;;
68976;SDS011;56029;52.568;13.588;2023-10-31T01:58:15;12.52;;;6.10;;
68976;SDS011;56029;52.568;13.588;2023-10-31T02:00:41;10.20;;;5.78;;
68976;SDS011;56029;52.568;13.588;2023-10-31T02:03:08;12.10;;;6.70;;
68976;SDS011;56029;52.568;13.588;2023-10-31T02:05:34;11.25;;;5.97;;
68976;SDS011;56029;52.568;13.588;2023-10-31T02:08:00;12.57;;;5.90;;
68976;SDS011;56029;52.568;13.588;2023-10-31T02:10:28;12.93;;;6.07;;
68976;SDS011;56029;52.568;13.588;2023-10-31T02:12:53;10.65;;;5.75;;
68976;SDS011;56029;52.568;13.588;2023-10-31T02:15:19;12.23;;;5.93;;
68976;SDS011;56029;52.568;13.588;2023-10-31T02:17:44;12.68;;;6.60;;
68976;SDS011;56029;52.568;13.588;2023-10-31T02:20:10;12.17;;;6.23;;
68976;SDS011;56029;52.568;13.588;2023-10-31T02:22:36;11.68;;;5.97;;
68976;SDS011;56029;52.568;13.588;2023-10-31T02:25:01;12.60;;;6.00;;
68976;SDS011;56029;52.568;13.588;2023-10-31T02:27:27;11.13;;;6.20;;
68976;SDS011;56029;52.568;13.588;2023-10-31T02:29:52;11.00;;;6.20;;
68976;SDS011;56029;52.568;13.588;2023-10-31T02:32:18;13.53;;;6.43;;
68976;SDS011;56029;52.568;13.588;2023-10-31T02:34:44;11.30;;;6.17;;
68976;SDS011;56029;52.568;13.588;2023-10-31T02:37:11;11.63;;;6.45;;
68976;SDS011;56029;52.568;13.588;2023-10-31T02:39:37;14.10;;;6.50;;
68976;SDS011;56029;52.568;13.588;2023-10-31T02:42:03;13.70;;;6.20;;
68976;SDS011;56029;52.568;13.588;2023-10-31T02:44:28;12.75;;;6.32;;
68976;SDS011;56029;52.568;13.588;2023-10-31T02:46:54;13.40;;;6.60;;
68976;SDS011;56029;52.568;13.588;2023-10-31T02:49:20;12.20;;;6.47;;
68976;SDS011;56029;52.568;13.588;2023-10-31T02:51:45;13.67;;;6.77;;
68976;SDS011;56029;52.568;13.588;2023-10-31T02:54:11;12.48;;;6.50;;
68976;SDS011;56029;52.568;13.588;2023-10-31T02:56:36;13.73;;;6.50;;
68976;SDS011;56029;52.568;13.588;2023-10-31T02:59:02;11.80;;;6.30;;
68976;SDS011;56029;52.568;13.588;2023-10-31T03:01:28;12.93;;;6.05;;
68976;SDS011;56029;52.568;13.588;2023-10-31T03:03:54;12.10;;;6.47;;
68976;SDS011;56029;52.568;13.588;2023-10-31T03:06:19;12.60;;;6.47;;
68976;SDS011;56029;52.568;13.588;2023-10-31T03:08:45;12.43;;;6.87;;
68976;SDS011;56029;52.568;13.588;2023-10-31T03:11:24;13.88;;;6.32;;
68976;SDS011;56029;52.568;13.588;2023-10-31T03:13:51;11.65;;;6.15;;
68976;SDS011;56029;52.568;13.588;2023-10-31T03:16:16;12.87;;;6.47;;
68976;SDS011;56029;52.568;13.588;2023-10-31T03:18:42;12.43;;;6.72;;
68976;SDS011;56029;52.568;13.588;2023-10-31T03:21:07;13.57;;;7.23;;
68976;SDS011;56029;52.568;13.588;2023-10-31T03:23:33;13.43;;;6.63;;
68976;SDS011;56029;52.568;13.588;2023-10-31T03:25:59;13.75;;;7.53;;
68976;SDS011;56029;52.568;13.588;2023-10-31T03:28:24;12.03;;;6.87;;
68976;SDS011;56029;52.568;13.588;2023-10-31T03:30:50;14.70;;;7.30;;
68976;SDS011;56029;52.568;13.588;2023-10-31T03:33:15;13.63;;;7.28;;
68976;SDS011;56029;52.568;13.588;2023-10-31T03:35:42;12.70;;;7.22;;
68976;SDS011;56029;52.568;13.588;2023-10-31T03:38:07;12.67;;;6.50;;
68976;SDS011;56029;52.568;13.588;2023-10-31T03:40:33;12.30;;;6.70;;
68976;SDS011;56029;52.568;13.588;2023-10-31T03:42:58;13.33;;;6.67;;
68976;SDS011;56029;52.568;13.588;2023-10-31T03:45:24;12.95;;;7.18;;
68976;SDS011;56029;52.568;13.588;2023-10-31T03:47:49;13.07;;;7.37;;
68976;SDS011;56029;52.568;13.588;2023-10-31T03:50:15;13.00;;;7.83;;
68976;SDS011;56029;52.568;13.588;2023-10-31T03:52:40;12.93;;;6.80;;
68976;SDS011;56029;52.568;13.588;2023-10-31T03:55:06;12.27;;;6.80;;
68976;SDS011;56029;52.568;13.588;2023-10-31T03:57:33;14.68;;;7.78;;
68976;SDS011;56029;52.568;13.588;2023-10-31T03:59:58;14.43;;;7.93;;
68976;SDS011;56029;52.568;13.588;2023-10-31T04:02:24;14.45;;;7.95;;
68976;SDS011;56029;52.568;13.588;2023-10-31T04:04:49;14.07;;;7.73;;
68976;SDS011;56029;52.568;13.588;2023-10-31T04:07:15;14.30;;;7.60;;
68976;SDS011;56029;52.568;13.588;2023-10-31T04:09:40;15.77;;;8.55;;
68976;SDS011;56029;52.568;13.588;2023-10-31T04:12:06;16.63;;;8.23;;
68976;SDS011;56029;52.568;13.588;2023-10-31T04:14:32;17.27;;;9.10;;
68976;SDS011;56029;52.568;13.588;2023-10-31T04:16:57;16.23;;;8.40;;
68976;SDS011;56029;52.568;13.588;2023-10-31T04:19:23;16.00;;;9.47;;
68976;SDS011;56029;52.568;13.588;2023-10-31T04:21:48;18.03;;;9.80;;
68976;SDS011;56029;52.568;13.588;2023-10-31T04:24:14;17.17;;;9.80;;
68976;SDS011;56029;52.568;13.588;2023-10-31T04:26:40;17.20;;;9.80;;
68976;SDS011;56029;52.568;13.588;2023-10-31T04:29:06;17.55;;;10.55;;
68976;SDS011;56029;52.568;13.588;2023-10-31T04:31:31;17.00;;;10.03;;
68976;SDS011;56029;52.568;13.588;2023-10-31T04:33:57;17.48;;;11.10;;
68976;SDS011;56029;52.568;13.588;2023-10-31T04:36:22;18.43;;;10.77;;
68976;SDS011;56029;52.568;13.588;2023-10-31T04:38:48;18.63;;;10.93;;
68976;SDS011;56029;52.568;13.588;2023-10-31T04:41:13;19.20;;;10.77;;
68976;SDS011;56029;52.568;13.588;2023-10-31T04:43:39;24.90;;;11.63;;
68976;SDS011;56029;52.568;13.588;2023-10-31T04:46:04;18.70;;;10.87;;
68976;SDS011;56029;52.568;13.588;2023-10-31T04:48:30;20.42;;;11.13;;
68976;SDS011;56029;52.568;13.588;2023-10-31T04:50:55;20.37;;;10.70;;
68976;SDS011;56029;52.568;13.588;2023-10-31T04:53:21;18.40;;;11.07;;
68976;SDS011;56029;52.568;13.588;2023-10-31T04:55:46;21.98;;;11.45;;
68976;SDS011;56029;52.568;13.588;2023-10-31T04:58:13;19.47;;;10.90;;
68976;SDS011;56029;52.568;13.588;2023-10-31T05:00:39;19.77;;;10.95;;
68976;SDS011;56029;52.568;13.588;2023-10-31T05:03:04;19.27;;;10.77;;
68976;SDS011;56029;52.568;13.588;2023-10-31T05:05:30;19.50;;;10.37;;
68976;SDS011;56029;52.568;13.588;2023-10-31T05:07:55;19.17;;;10.65;;
68976;SDS011;56029;52.568;13.588;2023-10-31T05:10:21;18.87;;;10.77;;
68976;SDS011;56029;52.568;13.588;2023-10-31T05:12:47;18.67;;;10.27;;
68976;SDS011;56029;52.568;13.588;2023-10-31T05:15:12;20.38;;;10.32;;
68976;SDS011;56029;52.568;13.588;2023-10-31T05:17:38;21.17;;;11.20;;
68976;SDS011;56029;52.568;13.588;2023-10-31T05:20:03;20.20;;;11.00;;
68976;SDS011;56029;52.568;13.588;2023-10-31T05:22:29;21.90;;;11.35;;
68976;SDS011;56029;52.568;13.588;2023-10-31T05:24:54;19.33;;;10.73;;
68976;SDS011;56029;52.568;13.588;2023-10-31T05:27:20;22.33;;;11.50;;
68976;SDS011;56029;52.568;13.588;2023-10-31T05:29:45;21.23;;;10.93;;
68976;SDS011;56029;52.568;13.588;2023-10-31T05:32:11;23.77;;;11.03;;
68976;SDS011;56029;52.568;13.588;2023-10-31T05:34:37;22.57;;;11.07;;
68976;SDS011;56029;52.568;13.588;2023-10-31T05:37:02;23.33;;;11.40;;
68976;SDS011;56029;52.568;13.588;2023-10-31T05:39:28;24.13;;;11.07;;
68976;SDS011;56029;52.568;13.588;2023-10-31T05:41:53;21.98;;;11.60;;
68976;SDS011;56029;52.568;13.588;2023-10-31T05:44:19;22.93;;;11.43;;
68976;SDS011;56029;52.568;13.588;2023-10-31T05:46:44;24.10;;;11.50;;
68976;SDS011;56029;52.568;13.588;2023-10-31T05:49:10;25.00;;;12.33;;
68976;SDS011;56029;52.568;13.588;2023-10-31T05:51:35;24.13;;;11.87;;
68976;SDS011;56029;52.568;13.588;2023-10-31T05:54:01;23.43;;;11.37;;
68976;SDS011;56029;52.568;13.588;2023-10-31T05:56:27;20.92;;;11.18;;
68976;SDS011;56029;52.568;13.588;2023-10-31T05:58:52;21.25;;;10.70;;
68976;SDS011;56029;52.568;13.588;2023-10-31T06:01:18;18.43;;;9.93;;
68976;SDS011;56029;52.568;13.588;2023-10-31T06:03:43;19.73;;;10.60;;
68976;SDS011;56029;52.568;13.588;2023-10-31T06:06:09;19.40;;;9.90;;
68976;SDS011;56029;52.568;13.588;2023-10-31T06:08:35;17.98;;;9.30;;
68976;SDS011;56029;52.568;13.588;2023-10-31T06:11:01;16.47;;;8.53;;
68976;SDS011;56029;52.568;13.588;2023-10-31T06:13:28;17.35;;;8.82;;
68976;SDS011;56029;52.568;13.588;2023-10-31T06:15:54;15.40;;;8.13;;
68976;SDS011;56029;52.568;13.588;2023-10-31T06:18:20;15.88;;;8.27;;
68976;SDS011;56029;52.568;13.588;2023-10-31T06:20:45;14.37;;;7.93;;
68976;SDS011;56029;52.568;13.588;2023-10-31T06:23:11;15.07;;;7.67;;
68976;SDS011;56029;52.568;13.588;2023-10-31T06:25:36;13.82;;;7.50;;
68976;SDS011;56029;52.568;13.588;2023-10-31T06:28:05;14.37;;;7.33;;
68976;SDS011;56029;52.568;13.588;2023-10-31T06:30:30;14.35;;;7.07;;
68976;SDS011;56029;52.568;13.588;2023-10-31T06:32:56;13.77;;;7.10;;
68976;SDS011;56029;52.568;13.588;2023-10-31T06:35:22;13.83;;;6.77;;
68976;SDS011;56029;52.568;13.588;2023-10-31T06:37:48;12.85;;;6.85;;
68976;SDS011;56029;52.568;13.588;2023-10-31T06:40:17;14.10;;;7.10;;
68976;SDS011;56029;52.568;13.588;2023-10-31T06:42:43;13.23;;;7.10;;
68976;SDS011;56029;52.568;13.588;2023-10-31T06:45:09;13.73;;;7.28;;
68976;SDS011;56029;52.568;13.588;2023-10-31T06:47:34;15.10;;;7.57;;
68976;SDS011;56029;52.568;13.588;2023-10-31T06:50:00;15.57;;;7.77;;
68976;SDS011;56029;52.568;13.588;2023-10-31T06:52:25;14.90;;;8.32;;
68976;SDS011;56029;52.568;13.588;2023-10-31T06:54:51;17.20;;;8.57;;
68976;SDS011;56029;52.568;13.588;2023-10-31T06:57:16;16.00;;;8.68;;
68976;SDS011;56029;52.568;13.588;2023-10-31T06:59:42;16.13;;;8.27;;
68976;SDS011;56029;52.568;13.588;2023-10-31T07:02:08;16.93;;;8.47;;
68976;SDS011;56029;52.568;13.588;2023-10-31T07:04:33;16.70;;;7.95;;
68976;SDS011;56029;52.568;13.588;2023-10-31T07:06:59;14.13;;;7.23;;
68976;SDS011;56029;52.568;13.588;2023-10-31T07:09:24;13.37;;;7.50;;
68976;SDS011;56029;52.568;13.588;2023-10-31T07:11:50;13.73;;;7.43;;
68976;SDS011;56029;52.568;13.588;2023-10-31T07:14:19;15.02;;;7.40;;
68976;SDS011;56029;52.568;13.588;2023-10-31T07:16:44;14.03;;;7.70;;
68976;SDS011;56029;52.568;13.588;2023-10-31T07:19:10;13.20;;;7.15;;
68976;SDS011;56029;52.568;13.588;2023-10-31T07:21:39;13.00;;;6.83;;
68976;SDS011;56029;52.568;13.588;2023-10-31T07:24:04;12.05;;;6.70;;
68976;SDS011;56029;52.568;13.588;2023-10-31T07:26:30;12.70;;;6.47;;
68976;SDS011;56029;52.568;13.588;2023-10-31T07:28:56;10.75;;;6.10;;
68976;SDS011;56029;52.568;13.588;2023-10-31T07:31:24;10.93;;;6.00;;
68976;SDS011;56029;52.568;13.588;2023-10-31T07:33:49;9.82;;;5.45;;
68976;SDS011;56029;52.568;13.588;2023-10-31T07:36:22;10.05;;;5.63;;
68976;SDS011;56029;52.568;13.588;2023-10-31T07:38:47;10.13;;;5.13;;
68976;SDS011;56029;52.568;13.588;2023-10-31T07:41:16;7.85;;;4.40;;
68976;SDS011;56029;52.568;13.588;2023-10-31T07:43:41;6.13;;;3.40;;
68976;SDS011;56029;52.568;13.588;2023-10-31T07:46:09;6.38;;;3.17;;
68976;SDS011;56029;52.568;13.588;2023-10-31T07:48:34;5.63;;;2.80;;
68976;SDS011;56029;52.568;13.588;2023-10-31T07:51:00;6.67;;;3.10;;
68976;SDS011;56029;52.568;13.588;2023-10-31T07:53:25;5.25;;;3.10;;
68976;SDS011;56029;52.568;13.588;2023-10-31T07:55:51;4.90;;;2.60;;
68976;SDS011;56029;52.568;13.588;2023-10-31T07:58:16;9.10;;;3.07;;
68976;SDS011;56029;52.568;13.588;2023-10-31T08:00:44;4.70;;;2.40;;
68976;SDS011;56029;52.568;13.588;2023-10-31T08:03:10;5.00;;;2.55;;
68976;SDS011;56029;52.568;13.588;2023-10-31T08:05:35;5.53;;;2.60;;
68976;SDS011;56029;52.568;13.588;2023-10-31T08:08:01;4.70;;;2.53;;
68976;SDS011;56029;52.568;13.588;2023-10-31T08:10:26;4.80;;;2.60;;
68976;SDS011;56029;52.568;13.588;2023-10-31T08:12:52;4.23;;;2.13;;
68976;SDS011;56029;52.568;13.588;2023-10-31T08:15:17;3.60;;;2.23;;
68976;SDS011;56029;52.568;13.588;2023-10-31T08:17:43;5.25;;;2.60;;
68976;SDS011;56029;52.568;13.588;2023-10-31T08:20:09;3.37;;;2.17;;
68976;SDS011;56029;52.568;13.588;2023-10-31T08:22:35;3.83;;;2.17;;
68976;SDS011;56029;52.568;13.588;2023-10-31T08:25:01;5.53;;;2.00;;
68976;SDS011;56029;52.568;13.588;2023-10-31T08:27:27;3.53;;;1.90;;
68976;SDS011;56029;52.568;13.588;2023-10-31T08:29:53;3.77;;;1.97;;
68976;SDS011;56029;52.568;13.588;2023-10-31T08:32:18;2.90;;;1.93;;
68976;SDS011;56029;52.568;13.588;2023-10-31T08:34:44;3.53;;;1.70;;
68976;SDS011;56029;52.568;13.588;2023-10-31T08:37:09;3.53;;;2.40;;
68976;SDS011;56029;52.568;13.588;2023-10-31T08:39:35;3.95;;;1.80;;
68976;SDS011;56029;52.568;13.588;2023-10-31T08:42:00;3.67;;;1.80;;
68976;SDS011;56029;52.568;13.588;2023-10-31T08:44:26;2.67;;;1.80;;
68976;SDS011;56029;52.568;13.588;2023-10-31T08:46:51;2.63;;;1.70;;
68976;SDS011;56029;52.568;13.588;2023-10-31T08:49:20;2.70;;;1.30;;
68976;SDS011;56029;52.568;13.588;2023-10-31T08:51:45;2.20;;;1.60;;
68976;SDS011;56029;52.568;13.588;2023-10-31T08:54:11;2.25;;;1.55;;
68976;SDS011;56029;52.568;13.588;2023-10-31T08:56:36;2.13;;;1.37;;
68976;SDS011;56029;52.568;13.588;2023-10-31T08:59:02;2.13;;;1.40;;
68976;SDS011;56029;52.568;13.588;2023-10-31T09:01:28;2.20;;;1.30;;
68976;SDS011;56029;52.568;13.588;2023-10-31T09:03:53;1.67;;;1.10;;
68976;SDS011;56029;52.568;13.588;2023-10-31T09:06:19;2.10;;;1.20;;
68976;SDS011;56029;52.568;13.588;2023-10-31T09:08:44;1.43;;;1.33;;
68976;SDS011;56029;52.568;13.588;2023-10-31T09:11:10;2.10;;;1.50;;
68976;SDS011;56029;52.568;13.588;2023-10-31T09:13:36;2.00;;;1.30;;
68976;SDS011;56029;52.568;13.588;2023-10-31T09:16:01;3.17;;;1.77;;
68976;SDS011;56029;52.568;13.588;2023-10-31T09:18:30;3.42;;;1.70;;
68976;SDS011;56029;52.568;13.588;2023-10-31T09:20:56;2.20;;;1.40;;
68976;SDS011;56029;52.568;13.588;2023-10-31T09:23:21;1.43;;;0.83;;
68976;SDS011;56029;52.568;13.588;2023-10-31T09:25:47;1.77;;;1.27;;
68976;SDS011;56029;52.568;13.588;2023-10-31T09:28:12;2.57;;;1.30;;
68976;SDS011;56029;52.568;13.588;2023-10-31T09:30:38;2.53;;;1.23;;
68976;SDS011;56029;52.568;13.588;2023-10-31T09:33:03;1.67;;;1.23;;
68976;SDS011;56029;52.568;13.588;2023-10-31T09:35:29;1.20;;;1.03;;
68976;SDS011;56029;52.568;13.588;2023-10-31T09:37:55;2.73;;;1.60;;
68976;SDS011;56029;52.568;13.588;2023-10-31T09:40:20;3.03;;;1.05;;
68976;SDS011;56029;52.568;13.588;2023-10-31T09:42:46;2.30;;;1.08;;
68976;SDS011;56029;52.568;13.588;2023-10-31T09:45:12;1.13;;;0.97;;
68976;SDS011;56029;52.568;13.588;2023-10-31T09:47:39;1.90;;;1.10;;
68976;SDS011;56029;52.568;13.588;2023-10-31T09:50:05;2.03;;;1.00;;
68976;SDS011;56029;52.568;13.588;2023-10-31T09:52:31;1.35;;;0.73;;
68976;SDS011;56029;52.568;13.588;2023-10-31T09:54:57;1.13;;;1.02;;
68976;SDS011;56029;52.568;13.588;2023-10-31T09:57:24;2.10;;;1.00;;
68976;SDS011;56029;52.568;13.588;2023-10-31T09:59:49;2.35;;;1.23;;
68976;SDS011;56029;52.568;13.588;2023-10-31T10:02:15;2.80;;;1.20;;
68976;SDS011;56029;52.568;13.588;2023-10-31T10:04:40;2.77;;;1.20;;
68976;SDS011;56029;52.568;13.588;2023-10-31T10:07:07;1.33;;;1.10;;
68976;SDS011;56029;52.568;13.588;2023-10-31T10:09:32;1.93;;;1.20;;
68976;SDS011;56029;52.568;13.588;2023-10-31T10:12:01;2.78;;;1.35;;
68976;SDS011;56029;52.568;13.588;2023-10-31T10:14:27;3.55;;;1.45;;
68976;SDS011;56029;52.568;13.588;2023-10-31T10:16:53;4.70;;;1.50;;
68976;SDS011;56029;52.568;13.588;2023-10-31T10:19:19;3.13;;;1.80;;
68976;SDS011;56029;52.568;13.588;2023-10-31T10:21:53;2.53;;;1.30;;
68976;SDS011;56029;52.568;13.588;2023-10-31T10:24:22;2.70;;;1.73;;
68976;SDS011;56029;52.568;13.588;2023-10-31T10:26:48;3.05;;;1.80;;
68976;SDS011;56029;52.568;13.588;2023-10-31T10:29:14;2.73;;;1.60;;
68976;SDS011;56029;52.568;13.588;2023-10-31T10:31:40;4.18;;;1.50;;
68976;SDS011;56029;52.568;13.588;2023-10-31T10:34:06;3.17;;;1.60;;
68976;SDS011;56029;52.568;13.588;2023-10-31T10:36:33;2.57;;;1.80;;
68976;SDS011;56029;52.568;13.588;2023-10-31T10:38:59;2.47;;;1.80;;
68976;SDS011;56029;52.568;13.588;2023-10-31T10:41:26;2.72;;;1.70;;
68976;SDS011;56029;52.568;13.588;2023-10-31T10:43:56;3.30;;;1.80;;
68976;SDS011;56029;52.568;13.588;2023-10-31T10:46:26;3.00;;;1.60;;
68976;SDS011;56029;52.568;13.588;2023-10-31T10:48:59;1.95;;;1.60;;
68976;SDS011;56029;52.568;13.588;2023-10-31T10:51:29;4.10;;;1.90;;
68976;SDS011;56029;52.568;13.588;2023-10-31T10:54:05;2.05;;;1.48;;
68976;SDS011;56029;52.568;13.588;2023-10-31T10:56:37;2.42;;;1.52;;
68976;SDS011;56029;52.568;13.588;2023-10-31T10:59:07;3.00;;;1.60;;
68976;SDS011;56029;52.568;13.588;2023-10-31T11:01:40;2.97;;;1.50;;
68976;SDS011;56029;52.568;13.588;2023-10-31T11:04:06;3.20;;;1.73;;
68976;SDS011;56029;52.568;13.588;2023-10-31T11:06:33;3.50;;;1.85;;
68976;SDS011;56029;52.568;13.588;2023-10-31T11:08:59;3.28;;;1.80;;
68976;SDS011;56029;52.568;13.588;2023-10-31T11:11:25;3.60;;;1.67;;
68976;SDS011;56029;52.568;13.588;2023-10-31T11:13:51;2.80;;;1.80;;
68976;SDS011;56029;52.568;13.588;2023-10-31T11:16:24;3.25;;;1.85;;
68976;SDS011;56029;52.568;13.588;2023-10-31T11:18:54;3.47;;;1.90;;
68976;SDS011;56029;52.568;13.588;2023-10-31T11:21:22;3.05;;;1.80;;
68976;SDS011;56029;52.568;13.588;2023-10-31T11:23:56;4.20;;;1.90;;
68976;SDS011;56029;52.568;13.588;2023-10-31T11:26:28;3.45;;;2.03;;
68976;SDS011;56029;52.568;13.588;2023-10-31T11:29:07;3.83;;;1.95;;
68976;SDS011;56029;52.568;13.588;2023-10-31T11:31:37;3.35;;;1.90;;
68976;SDS011;56029;52.568;13.588;2023-10-31T11:34:02;4.00;;;1.92;;
68976;SDS011;56029;52.568;13.588;2023-10-31T11:36:31;3.10;;;2.10;;
68976;SDS011;56029;52.568;13.588;2023-10-31T11:39:09;2.55;;;1.90;;
68976;SDS011;56029;52.568;13.588;2023-10-31T11:41:37;3.47;;;2.05;;
68976;SDS011;56029;52.568;13.588;2023-10-31T11:44:06;4.80;;;2.13;;
68976;SDS011;56029;52.568;13.588;2023-10-31T11:46:34;3.88;;;2.15;;
68976;SDS011;56029;52.568;13.588;2023-10-31T11:48:59;4.90;;;2.40;;
68976;SDS011;56029;52.568;13.588;2023-10-31T11:51:25;3.43;;;2.17;;
68976;SDS011;56029;52.568;13.588;2023-10-31T11:53:51;5.13;;;2.22;;
68976;SDS011;56029;52.568;13.588;2023-10-31T11:56:17;4.75;;;2.20;;
68976;SDS011;56029;52.568;13.588;2023-10-31T11:58:43;3.37;;;1.70;;
68976;SDS011;56029;52.568;13.588;2023-10-31T12:01:09;3.72;;;2.08;;
68976;SDS011;56029;52.568;13.588;2023-10-31T12:03:39;3.47;;;1.90;;
68976;SDS011;56029;52.568;13.588;2023-10-31T12:06:06;3.10;;;1.80;;
68976;SDS011;56029;52.568;13.588;2023-10-31T12:08:40;5.20;;;2.40;;
68976;SDS011;56029;52.568;13.588;2023-10-31T12:11:11;2.10;;;1.50;;
68976;SDS011;56029;52.568;13.588;2023-10-31T12:13:40;3.50;;;2.00;;
68976;SDS011;56029;52.568;13.588;2023-10-31T12:16:10;2.92;;;1.80;;
68976;SDS011;56029;52.568;13.588;2023-10-31T12:18:36;2.40;;;1.40;;
68976;SDS011;56029;52.568;13.588;2023-10-31T12:21:02;3.47;;;1.40;;
68976;SDS011;56029;52.568;13.588;2023-10-31T12:23:28;2.25;;;1.30;;
68976;SDS011;56029;52.568;13.588;2023-10-31T12:25:54;2.23;;;1.33;;
68976;SDS011;56029;52.568;13.588;2023-10-31T12:28:20;2.55;;;1.40;;
68976;SDS011;56029;52.568;13.588;2023-10-31T12:30:47;2.83;;;1.50;;
68976;SDS011;56029;52.568;13.588;2023-10-31T12:33:13;2.47;;;1.48;;
68976;SDS011;56029;52.568;13.588;2023-10-31T12:35:40;3.00;;;1.50;;
68976;SDS011;56029;52.568;13.588;2023-10-31T12:38:06;2.38;;;1.40;;
68976;SDS011;56029;52.568;13.588;2023-10-31T12:40:33;2.30;;;1.10;;
68976;SDS011;56029;52.568;13.588;2023-10-31T12:42:59;3.33;;;1.30;;
68976;SDS011;56029;52.568;13.588;2023-10-31T12:45:25;1.70;;;1.27;;
68976;SDS011;56029;52.568;13.588;2023-10-31T12:48:03;4.55;;;1.30;;
68976;SDS011;56029;52.568;13.588;2023-10-31T12:50:33;2.80;;;1.08;;
68976;SDS011;56029;52.568;13.588;2023-10-31T12:52:59;2.40;;;1.10;;
68976;SDS011;56029;52.568;13.588;2023-10-31T12:55:26;2.20;;;1.10;;
68976;SDS011;56029;52.568;13.588;2023-10-31T12:57:52;2.42;;;1.30;;
68976;SDS011;56029;52.568;13.588;2023-10-31T13:00:19;2.55;;;1.30;;
68976;SDS011;56029;52.568;13.588;2023-10-31T13:02:45;2.97;;;1.50;;
68976;SDS011;56029;52.568;13.588;2023-10-31T13:05:12;2.23;;;1.17;;
68976;SDS011;56029;52.568;13.588;2023-10-31T13:07:48;2.22;;;1.40;;
68976;SDS011;56029;52.568;13.588;2023-10-31T13:10:15;1.85;;;1.00;;
68976;SDS011;56029;52.568;13.588;2023-10-31T13:12:43;1.63;;;1.10;;
68976;SDS011;56029;52.568;13.588;2023-10-31T13:15:09;1.93;;;1.00;;
68976;SDS011;56029;52.568;13.588;2023-10-31T13:17:34;1.98;;;0.90;;
68976;SDS011;56029;52.568;13.588;2023-10-31T13:20:00;1.10;;;0.90;;
68976;SDS011;56029;52.568;13.588;2023-10-31T13:22:25;1.30;;;1.00;;
68976;SDS011;56029;52.568;13.588;2023-10-31T13:24:51;2.63;;;1.17;;
68976;SDS011;56029;52.568;13.588;2023-10-31T13:27:16;2.03;;;1.03;;
68976;SDS011;56029;52.568;13.588;2023-10-31T13:29:42;2.17;;;0.97;;
68976;SDS011;56029;52.568;13.588;2023-10-31T13:32:11;2.05;;;1.00;;
68976;SDS011;56029;52.568;13.588;2023-10-31T13:34:36;2.40;;;0.80;;
68976;SDS011;56029;52.568;13.588;2023-10-31T13:37:02;1.17;;;0.80;;
68976;SDS011;56029;52.568;13.588;2023-10-31T13:39:27;1.43;;;0.90;;
68976;SDS011;56029;52.568;13.588;2023-10-31T13:41:53;1.47;;;0.90;;
68976;SDS011;56029;52.568;13.588;2023-10-31T13:44:19;2.70;;;0.93;;
68976;SDS011;56029;52.568;13.588;2023-10-31T13:46:44;1.20;;;0.80;;
68976;SDS011;56029;52.568;13.588;2023-10-31T13:49:10;1.00;;;0.80;;
68976;SDS011;56029;52.568;13.588;2023-10-31T13:51:35;1.00;;;0.73;;
68976;SDS011;56029;52.568;13.588;2023-10-31T13:54:01;1.10;;;0.90;;
68976;SDS011;56029;52.568;13.588;2023-10-31T13:56:26;1.40;;;0.80;;
68976;SDS011;56029;52.568;13.588;2023-10-31T13:58:52;1.73;;;0.90;;
68976;SDS011;56029;52.568;13.588;2023-10-31T14:01:17;1.60;;;0.90;;
68976;SDS011;56029;52.568;13.588;2023-10-31T14:03:43;1.50;;;1.00;;
68976;SDS011;56029;52.568;13.588;2023-10-31T14:06:08;1.60;;;1.10;;
68976;SDS011;56029;52.568;13.588;2023-10-31T14:08:34;1.70;;;0.90;;
68976;SDS011;56029;52.568;13.588;2023-10-31T14:10:59;2.30;;;1.17;;
68976;SDS011;56029;52.568;13.588;2023-10-31T14:13:25;2.07;;;0.97;;
68976;SDS011;56029;52.568;13.588;2023-10-31T14:15:50;1.67;;;0.80;;
68976;SDS011;56029;52.568;13.588;2023-10-31T14:18:16;1.60;;;0.93;;
68976;SDS011;56029;52.568;13.588;2023-10-31T14:20:44;1.70;;;0.80;;